Time;durP1;ratioP1;P1;durP2;ratioP2;P2;SDS_P1;SDS_P2;PMS_P1;PMS_P2;Temp;Humidity;BMP_temperature;BMP_pressure;BME280_temperature;BME280_humidity;BME280_pressure;Samples;Min_cycle;Max_cycle;Signal;HPM_P1;HPM_P2
2024/01/01 00:00:44;;;;;;;41.42;27.52;;;;;;;;;;5103591;27;20127;-63
2024/01/01 00:03:10;;;;;;;38.40;26.23;;;;;;;;;;5103961;28;20505;-65
2024/01/01 00:05:36;;;;;;;37.83;23.77;;;;;;;;;;5104313;28;20112;-66
2024/01/01 00:08:02;;;;;;;31.02;22.10;;;;;;;;;;5103539;28;20039;-65
2024/01/01 00:10:28;;;;;;;27.13;19.60;;;;;;;;;;5103649;28;20370;-64
2024/01/01 00:12:55;;;;;;;28.70;19.42;;;;;;;;;;5102618;28;20044;-65
2024/01/01 00:15:21;;;;;;;24.58;16.17;;;;;;;;;;5102830;28;20052;-65
2024/01/01 00:17:47;;;;;;;31.85;17.33;;;;;;;;;;5104234;28;20049;-66
2024/01/01 00:20:14;;;;;;;28.23;17.27;;;;;;;;;;5103191;28;20096;-65
2024/01/01 00:22:41;;;;;;;21.15;14.48;;;;;;;;;;5103496;28;20044;-66
2024/01/01 00:25:07;;;;;;;20.50;13.35;;;;;;;;;;5101994;28;20047;-65
2024/01/01 00:27:34;;;;;;;22.85;10.90;;;;;;;;;;5101911;28;20036;-65
2024/01/01 00:30:01;;;;;;;15.38;10.68;;;;;;;;;;5103018;28;20050;-65
2024/01/01 00:32:27;;;;;;;13.63;8.43;;;;;;;;;;5104213;28;20059;-63
2024/01/01 00:34:53;;;;;;;11.45;6.55;;;;;;;;;;5103872;28;20047;-63
2024/01/01 00:37:19;;;;;;;12.80;6.97;;;;;;;;;;5102441;28;20047;-64
2024/01/01 00:39:45;;;;;;;12.55;6.63;;;;;;;;;;5120086;27;20043;-64
2024/01/01 00:42:11;;;;;;;9.88;6.57;;;;;;;;;;5122859;27;20146;-63
2024/01/01 00:44:38;;;;;;;10.52;5.57;;;;;;;;;;5123895;27;20058;-65
2024/01/01 00:47:04;;;;;;;7.68;4.90;;;;;;;;;;5124444;27;20076;-64
2024/01/01 00:49:30;;;;;;;12.18;5.00;;;;;;;;;;5124321;27;20043;-65
2024/01/01 00:51:57;;;;;;;9.27;5.15;;;;;;;;;;5123445;28;20184;-65
2024/01/01 00:54:26;;;;;;;13.07;5.65;;;;;;;;;;5125427;28;20043;-65
2024/01/01 00:56:54;;;;;;;10.25;6.40;;;;;;;;;;5124830;28;20039;-64
2024/01/01 00:59:20;;;;;;;9.80;6.50;;;;;;;;;;5124457;27;20055;-66
2024/01/01 01:01:46;;;;;;;12.48;7.68;;;;;;;;;;5123219;28;20092;-65
2024/01/01 01:04:13;;;;;;;14.80;10.38;;;;;;;;;;5123527;27;20035;-65
2024/01/01 01:06:39;;;;;;;21.25;15.80;;;;;;;;;;5123464;27;20559;-65
2024/01/01 01:09:05;;;;;;;22.15;16.17;;;;;;;;;;5122840;27;20051;-65
2024/01/01 01:11:32;;;;;;;25.85;17.88;;;;;;;;;;5123415;27;20460;-65
2024/01/01 01:13:58;;;;;;;26.08;17.90;;;;;;;;;;5123533;28;20053;-66
2024/01/01 01:16:24;;;;;;;31.08;18.02;;;;;;;;;;5104065;27;20134;-64
2024/01/01 01:18:50;;;;;;;28.13;19.50;;;;;;;;;;5124304;28;20084;-64
2024/01/01 01:21:16;;;;;;;27.55;18.15;;;;;;;;;;5123455;27;20438;-65
2024/01/01 01:23:43;;;;;;;30.33;21.45;;;;;;;;;;5123702;28;20511;-65
2024/01/01 01:26:09;;;;;;;27.98;20.55;;;;;;;;;;5123614;28;20080;-63
2024/01/01 01:28:35;;;;;;;32.28;22.40;;;;;;;;;;5123176;28;20453;-63
2024/01/01 01:31:02;;;;;;;31.60;21.30;;;;;;;;;;5123552;28;20055;-63
2024/01/01 01:33:28;;;;;;;35.53;22.48;;;;;;;;;;5123018;27;21104;-64
2024/01/01 01:35:55;;;;;;;34.13;23.77;;;;;;;;;;5122967;27;20091;-65
2024/01/01 01:38:23;;;;;;;33.13;23.63;;;;;;;;;;5123069;27;20074;-63
2024/01/01 01:40:49;;;;;;;35.42;24.38;;;;;;;;;;5122635;28;20043;-64
2024/01/01 01:43:22;;;;;;;38.10;24.75;;;;;;;;;;5122827;28;20047;-64
2024/01/01 01:45:48;;;;;;;34.42;25.83;;;;;;;;;;5123180;27;20054;-66
2024/01/01 01:48:15;;;;;;;38.10;25.80;;;;;;;;;;5124407;27;20027;-67
2024/01/01 01:50:41;;;;;;;43.47;25.73;;;;;;;;;;5127033;27;20050;-66
2024/01/01 01:53:08;;;;;;;40.65;26.63;;;;;;;;;;5125645;27;20074;-64
2024/01/01 01:55:34;;;;;;;37.75;26.60;;;;;;;;;;5127166;27;20403;-65
2024/01/01 01:58:00;;;;;;;41.33;27.55;;;;;;;;;;5125561;27;20510;-65
2024/01/01 02:00:26;;;;;;;38.15;26.65;;;;;;;;;;5107276;27;20083;-66
2024/01/01 02:02:53;;;;;;;42.80;29.20;;;;;;;;;;5124109;27;20525;-64
2024/01/01 02:05:19;;;;;;;45.47;30.17;;;;;;;;;;5126142;27;20039;-64
2024/01/01 02:07:45;;;;;;;43.72;29.77;;;;;;;;;;5125828;27;20148;-65
2024/01/01 02:10:12;;;;;;;48.38;30.60;;;;;;;;;;5126373;27;20305;-65
2024/01/01 02:12:38;;;;;;;39.78;29.23;;;;;;;;;;5107427;27;20035;-64
2024/01/01 02:15:05;;;;;;;38.58;27.70;;;;;;;;;;5126019;27;20043;-64
2024/01/01 02:17:31;;;;;;;40.38;27.42;;;;;;;;;;5126422;27;20198;-64
2024/01/01 02:19:57;;;;;;;33.85;26.40;;;;;;;;;;5106925;27;20542;-65
2024/01/01 02:22:23;;;;;;;39.85;28.25;;;;;;;;;;5106415;27;20079;-64
2024/01/01 02:24:49;;;;;;;35.22;25.95;;;;;;;;;;5126313;27;20039;-64
2024/01/01 02:27:16;;;;;;;36.75;25.45;;;;;;;;;;5125348;27;20042;-64
2024/01/01 02:29:42;;;;;;;35.15;24.08;;;;;;;;;;5125771;27;20067;-64
2024/01/01 02:32:08;;;;;;;37.60;25.83;;;;;;;;;;5126824;27;20136;-64
2024/01/01 02:34:34;;;;;;;38.42;24.10;;;;;;;;;;5126005;27;20517;-64
2024/01/01 02:37:00;;;;;;;40.60;25.35;;;;;;;;;;5124515;27;20055;-64
2024/01/01 02:39:26;;;;;;;29.70;21.88;;;;;;;;;;5126179;27;20062;-65
2024/01/01 02:41:52;;;;;;;30.73;20.30;;;;;;;;;;5125110;27;20043;-65
2024/01/01 02:44:18;;;;;;;28.00;20.48;;;;;;;;;;5125747;27;20035;-64
2024/01/01 02:46:44;;;;;;;28.25;20.08;;;;;;;;;;5126207;27;20043;-62
2024/01/01 02:49:11;;;;;;;31.25;18.83;;;;;;;;;;5126286;27;20073;-64
2024/01/01 02:51:41;;;;;;;24.30;18.13;;;;;;;;;;5125677;27;20190;-64
2024/01/01 02:54:07;;;;;;;24.75;17.45;;;;;;;;;;5124937;27;20248;-64
2024/01/01 02:56:33;;;;;;;24.85;16.10;;;;;;;;;;5125210;27;20382;-64
2024/01/01 02:58:59;;;;;;;27.48;16.90;;;;;;;;;;5124815;27;20466;-65
2024/01/01 03:01:26;;;;;;;26.20;16.73;;;;;;;;;;5124563;27;20067;-65
2024/01/01 03:03:52;;;;;;;19.20;15.10;;;;;;;;;;5124620;27;20039;-64
2024/01/01 03:06:18;;;;;;;25.88;15.95;;;;;;;;;;5125369;27;20042;-65
2024/01/01 03:08:45;;;;;;;23.48;15.35;;;;;;;;;;5124887;27;20039;-64
2024/01/01 03:11:11;;;;;;;19.92;13.43;;;;;;;;;;5125426;27;20435;-64
2024/01/01 03:13:37;;;;;;;27.83;15.15;;;;;;;;;;5124630;27;20042;-65
2024/01/01 03:16:03;;;;;;;22.80;14.65;;;;;;;;;;5124915;27;20035;-65
2024/01/01 03:18:30;;;;;;;22.33;13.13;;;;;;;;;;5125326;27;20038;-64
2024/01/01 03:20:56;;;;;;;19.23;14.00;;;;;;;;;;5105250;27;20039;-65
2024/01/01 03:23:22;;;;;;;26.92;13.27;;;;;;;;;;5124429;27;20031;-65
2024/01/01 03:25:48;;;;;;;18.52;13.10;;;;;;;;;;5125089;27;20377;-64
2024/01/01 03:28:15;;;;;;;16.63;11.65;;;;;;;;;;5104848;27;20034;-65
2024/01/01 03:30:41;;;;;;;22.20;12.57;;;;;;;;;;5124045;27;20249;-66
2024/01/01 03:33:07;;;;;;;17.80;10.55;;;;;;;;;;5125345;27;20043;-64
2024/01/01 03:35:33;;;;;;;15.45;10.15;;;;;;;;;;5125129;27;20039;-64
2024/01/01 03:37:59;;;;;;;20.95;11.68;;;;;;;;;;5123785;27;20035;-65
2024/01/01 03:40:25;;;;;;;15.35;10.27;;;;;;;;;;5123970;27;20108;-63
2024/01/01 03:42:51;;;;;;;19.83;9.43;;;;;;;;;;5123075;27;20567;-64
2024/01/01 03:45:18;;;;;;;16.42;10.10;;;;;;;;;;5104422;27;20039;-63
2024/01/01 03:47:44;;;;;;;13.00;9.02;;;;;;;;;;5124089;27;20038;-65
2024/01/01 03:50:10;;;;;;;18.27;11.45;;;;;;;;;;5124737;27;20118;-64
2024/01/01 03:52:36;;;;;;;15.27;8.45;;;;;;;;;;5123334;27;20104;-65
2024/01/01 03:55:03;;;;;;;14.68;8.88;;;;;;;;;;5124272;27;20046;-64
2024/01/01 03:57:32;;;;;;;14.68;8.02;;;;;;;;;;5122853;27;20051;-66
2024/01/01 03:59:59;;;;;;;12.48;7.15;;;;;;;;;;5122519;27;20498;-64
2024/01/01 04:02:25;;;;;;;12.27;6.65;;;;;;;;;;5122120;27;20505;-63
2024/01/01 04:04:51;;;;;;;12.60;7.38;;;;;;;;;;5123052;27;20042;-65
2024/01/01 04:07:17;;;;;;;15.77;7.93;;;;;;;;;;5123530;27;20175;-64
2024/01/01 04:09:44;;;;;;;14.27;6.90;;;;;;;;;;5124353;27;20045;-64
2024/01/01 04:12:10;;;;;;;12.65;5.82;;;;;;;;;;5122490;27;20057;-65
2024/01/01 04:14:36;;;;;;;10.77;5.55;;;;;;;;;;5123223;27;20425;-64
2024/01/01 04:17:06;;;;;;;10.85;5.50;;;;;;;;;;5123381;27;20054;-64
2024/01/01 04:19:32;;;;;;;10.60;6.00;;;;;;;;;;5105077;28;20049;-65
2024/01/01 04:21:58;;;;;;;9.68;5.25;;;;;;;;;;5102872;27;20159;-65
2024/01/01 04:24:24;;;;;;;11.48;5.72;;;;;;;;;;5124112;27;20053;-66
2024/01/01 04:26:50;;;;;;;9.68;5.60;;;;;;;;;;5122713;27;20039;-66
2024/01/01 04:29:16;;;;;;;12.18;5.53;;;;;;;;;;5123011;27;20066;-64
2024/01/01 04:31:42;;;;;;;12.23;5.43;;;;;;;;;;5122819;27;20493;-64
2024/01/01 04:34:09;;;;;;;9.93;4.68;;;;;;;;;;5123485;27;20099;-64
2024/01/01 04:36:35;;;;;;;9.18;4.93;;;;;;;;;;5123398;27;20432;-65
2024/01/01 04:39:03;;;;;;;8.52;4.43;;;;;;;;;;5123235;27;20171;-64
2024/01/01 04:41:30;;;;;;;9.55;4.57;;;;;;;;;;5120421;28;20051;-65
2024/01/01 04:43:56;;;;;;;7.53;4.50;;;;;;;;;;5122348;27;20103;-64
2024/01/01 04:46:22;;;;;;;9.02;4.47;;;;;;;;;;5122400;27;20142;-65
2024/01/01 04:48:48;;;;;;;7.88;4.30;;;;;;;;;;5124092;28;21398;-65
2024/01/01 04:51:14;;;;;;;7.68;3.97;;;;;;;;;;5123217;28;20039;-65
2024/01/01 04:53:41;;;;;;;6.13;3.97;;;;;;;;;;5123371;28;20206;-63
2024/01/01 04:56:07;;;;;;;12.90;4.53;;;;;;;;;;5119813;28;20138;-64
2024/01/01 04:58:34;;;;;;;6.90;3.92;;;;;;;;;;5122832;28;20066;-63
2024/01/01 05:01:00;;;;;;;9.15;3.38;;;;;;;;;;5123187;28;20031;-64
2024/01/01 05:03:26;;;;;;;4.97;3.03;;;;;;;;;;5123584;28;20053;-65
2024/01/01 05:05:53;;;;;;;4.43;2.78;;;;;;;;;;5123943;28;20031;-65
2024/01/01 05:08:19;;;;;;;5.50;2.95;;;;;;;;;;5103978;28;20039;-64
2024/01/01 05:10:45;;;;;;;5.28;2.50;;;;;;;;;;5122951;27;20035;-64
2024/01/01 05:13:11;;;;;;;4.78;2.80;;;;;;;;;;5123430;28;20035;-64
2024/01/01 05:15:39;;;;;;;6.50;2.53;;;;;;;;;;5122482;27;20043;-64
2024/01/01 05:18:06;;;;;;;5.82;2.22;;;;;;;;;;5123633;28;20047;-64
2024/01/01 05:20:32;;;;;;;8.35;3.20;;;;;;;;;;5122988;27;20164;-64
2024/01/01 05:22:58;;;;;;;4.28;2.33;;;;;;;;;;5122946;27;20551;-64
2024/01/01 05:25:24;;;;;;;5.63;2.10;;;;;;;;;;5127525;27;20286;-63
2024/01/01 05:27:50;;;;;;;9.25;3.03;;;;;;;;;;5126825;27;20035;-65
2024/01/01 05:30:16;;;;;;;5.88;2.55;;;;;;;;;;5127230;27;20057;-65
2024/01/01 05:32:42;;;;;;;4.53;2.30;;;;;;;;;;5128185;27;20497;-65
2024/01/01 05:35:09;;;;;;;5.05;2.00;;;;;;;;;;5126588;27;20486;-64
2024/01/01 05:37:35;;;;;;;2.97;1.55;;;;;;;;;;5107595;27;20125;-64
2024/01/01 05:40:01;;;;;;;4.43;1.80;;;;;;;;;;5126881;27;20055;-64
2024/01/01 05:42:31;;;;;;;4.88;2.15;;;;;;;;;;5126784;27;20083;-63
2024/01/01 05:44:57;;;;;;;5.60;2.25;;;;;;;;;;5108056;27;20369;-65
2024/01/01 05:47:23;;;;;;;5.75;2.03;;;;;;;;;;5107619;27;20041;-65
2024/01/01 05:49:49;;;;;;;6.75;2.70;;;;;;;;;;5127185;27;20038;-64
2024/01/01 05:52:17;;;;;;;6.82;2.90;;;;;;;;;;5126038;27;20377;-64
2024/01/01 05:54:45;;;;;;;6.10;2.08;;;;;;;;;;5126554;27;20103;-64
2024/01/01 05:57:11;;;;;;;8.38;2.78;;;;;;;;;;5126016;27;20043;-65
2024/01/01 05:59:37;;;;;;;6.13;2.10;;;;;;;;;;5126047;27;20057;-65
2024/01/01 06:02:03;;;;;;;5.32;2.40;;;;;;;;;;5126215;27;20054;-65
2024/01/01 06:04:29;;;;;;;6.28;3.30;;;;;;;;;;5126573;27;20035;-64
2024/01/01 06:06:55;;;;;;;5.00;2.58;;;;;;;;;;5125579;27;20042;-65
2024/01/01 06:09:22;;;;;;;6.47;3.10;;;;;;;;;;5126185;27;20048;-63
2024/01/01 06:11:49;;;;;;;7.25;2.85;;;;;;;;;;5126164;27;20043;-65
2024/01/01 06:14:15;;;;;;;8.75;2.88;;;;;;;;;;5126040;27;20064;-65
2024/01/01 06:16:43;;;;;;;9.38;2.65;;;;;;;;;;5123359;27;20526;-64
2024/01/01 06:19:10;;;;;;;5.95;2.92;;;;;;;;;;5123177;27;20130;-64
2024/01/01 06:21:36;;;;;;;5.35;1.88;;;;;;;;;;5123159;27;20047;-63
2024/01/01 06:24:02;;;;;;;6.57;3.00;;;;;;;;;;5123740;27;20427;-65
2024/01/01 06:26:28;;;;;;;6.65;2.75;;;;;;;;;;5125289;27;20168;-65
2024/01/01 06:28:54;;;;;;;4.82;2.97;;;;;;;;;;5104705;27;20420;-66
2024/01/01 06:31:21;;;;;;;5.68;3.15;;;;;;;;;;5125633;27;20035;-65
2024/01/01 06:33:47;;;;;;;5.82;2.88;;;;;;;;;;5126009;27;20164;-65
2024/01/01 06:36:13;;;;;;;13.30;3.88;;;;;;;;;;5124042;27;20074;-64
2024/01/01 06:38:39;;;;;;;5.97;2.88;;;;;;;;;;5125223;27;20047;-65
2024/01/01 06:41:06;;;;;;;10.27;3.25;;;;;;;;;;5125236;27;20047;-65
2024/01/01 06:43:33;;;;;;;8.00;3.58;;;;;;;;;;5124639;27;20474;-65
2024/01/01 06:45:59;;;;;;;5.05;2.20;;;;;;;;;;5125019;27;20063;-65
2024/01/01 06:48:26;;;;;;;6.00;2.05;;;;;;;;;;5125548;27;20703;-65
2024/01/01 06:50:53;;;;;;;3.95;2.00;;;;;;;;;;5105643;27;20065;-64
2024/01/01 06:53:19;;;;;;;6.22;2.08;;;;;;;;;;5124174;27;20066;-65
2024/01/01 06:55:45;;;;;;;3.40;1.42;;;;;;;;;;5124754;27;20150;-66
2024/01/01 06:58:11;;;;;;;4.50;1.52;;;;;;;;;;5124537;27;20043;-64
2024/01/01 07:00:37;;;;;;;4.45;2.33;;;;;;;;;;5124847;27;20704;-65
2024/01/01 07:03:03;;;;;;;5.28;2.22;;;;;;;;;;5125842;27;20107;-65
2024/01/01 07:05:29;;;;;;;3.75;1.38;;;;;;;;;;5124634;27;20096;-64
2024/01/01 07:07:55;;;;;;;5.80;1.88;;;;;;;;;;5105603;27;20042;-65
2024/01/01 07:10:22;;;;;;;3.40;1.42;;;;;;;;;;5124676;27;20076;-65
2024/01/01 07:12:49;;;;;;;7.63;2.42;;;;;;;;;;5123888;27;20038;-65
2024/01/01 07:15:15;;;;;;;6.10;2.45;;;;;;;;;;5124565;27;20066;-66
2024/01/01 07:17:41;;;;;;;2.33;1.30;;;;;;;;;;5106243;27;21096;-64
2024/01/01 07:20:10;;;;;;;5.68;1.15;;;;;;;;;;5124270;27;20561;-65
2024/01/01 07:22:36;;;;;;;3.92;1.25;;;;;;;;;;5124615;27;20055;-65
2024/01/01 07:25:03;;;;;;;4.68;1.20;;;;;;;;;;5124962;27;20031;-63
2024/01/01 07:27:29;;;;;;;5.75;1.25;;;;;;;;;;5123812;27;20031;-65
2024/01/01 07:29:56;;;;;;;4.70;1.13;;;;;;;;;;5124180;27;20035;-64
2024/01/01 07:32:23;;;;;;;2.55;1.10;;;;;;;;;;5124240;27;20051;-64
2024/01/01 07:34:49;;;;;;;3.22;1.38;;;;;;;;;;5124914;27;20050;-64
2024/01/01 07:37:15;;;;;;;2.13;1.30;;;;;;;;;;5124005;27;20516;-64
2024/01/01 07:39:42;;;;;;;4.65;1.55;;;;;;;;;;5105160;27;20070;-65
2024/01/01 07:42:08;;;;;;;2.55;1.17;;;;;;;;;;5123665;27;20588;-64
2024/01/01 07:44:34;;;;;;;2.15;1.23;;;;;;;;;;5124129;27;20179;-64
2024/01/01 07:47:00;;;;;;;4.63;1.45;;;;;;;;;;5123692;27;20127;-65
2024/01/01 07:49:26;;;;;;;4.40;1.52;;;;;;;;;;5124405;27;20039;-65
2024/01/01 07:51:52;;;;;;;3.03;1.20;;;;;;;;;;5123915;27;20425;-65
2024/01/01 07:54:19;;;;;;;6.55;2.58;;;;;;;;;;5123898;27;20183;-65
2024/01/01 07:56:47;;;;;;;7.50;2.15;;;;;;;;;;5123482;27;20092;-64
2024/01/01 07:59:13;;;;;;;5.97;1.77;;;;;;;;;;5124139;27;20042;-65
2024/01/01 08:01:40;;;;;;;3.05;1.60;;;;;;;;;;5124676;27;20042;-65
2024/01/01 08:04:07;;;;;;;5.95;1.67;;;;;;;;;;5123886;27;20039;-64
2024/01/01 08:06:33;;;;;;;2.83;1.50;;;;;;;;;;5124445;27;20168;-64
2024/01/01 08:08:59;;;;;;;3.97;1.83;;;;;;;;;;5122360;27;20043;-65
2024/01/01 08:11:26;;;;;;;2.22;1.15;;;;;;;;;;5104558;27;20513;-65
2024/01/01 08:13:52;;;;;;;2.92;1.48;;;;;;;;;;5123351;27;20120;-65
2024/01/01 08:16:19;;;;;;;5.78;2.42;;;;;;;;;;5124476;27;20118;-65
2024/01/01 08:18:48;;;;;;;5.68;1.88;;;;;;;;;;5123981;27;20267;-65
2024/01/01 08:21:14;;;;;;;4.93;1.80;;;;;;;;;;5124027;27;20051;-64
2024/01/01 08:23:40;;;;;;;6.57;1.92;;;;;;;;;;5122805;27;20084;-65
2024/01/01 08:26:07;;;;;;;4.63;2.00;;;;;;;;;;5124261;27;20126;-65
2024/01/01 08:28:33;;;;;;;4.25;1.80;;;;;;;;;;5122570;27;20043;-66
2024/01/01 08:31:00;;;;;;;4.55;1.45;;;;;;;;;;5123698;27;20104;-64
2024/01/01 08:33:26;;;;;;;4.90;2.25;;;;;;;;;;5123614;27;20366;-65
2024/01/01 08:35:53;;;;;;;5.63;2.45;;;;;;;;;;5123499;27;20039;-65
2024/01/01 08:38:19;;;;;;;4.82;1.65;;;;;;;;;;5102922;27;20148;-65
2024/01/01 08:40:45;;;;;;;3.58;1.88;;;;;;;;;;5122830;27;20051;-64
2024/01/01 08:43:12;;;;;;;6.50;1.70;;;;;;;;;;5122865;28;20110;-65
2024/01/01 08:45:38;;;;;;;2.65;1.50;;;;;;;;;;5104585;28;20039;-64
2024/01/01 08:48:04;;;;;;;6.63;2.28;;;;;;;;;;5122608;27;20162;-64
2024/01/01 08:50:30;;;;;;;5.13;1.75;;;;;;;;;;5121643;28;20047;-65
2024/01/01 08:52:56;;;;;;;8.73;2.00;;;;;;;;;;5122355;28;20047;-65
2024/01/01 08:55:22;;;;;;;6.70;1.70;;;;;;;;;;5104711;28;20039;-64
2024/01/01 08:57:48;;;;;;;7.07;2.85;;;;;;;;;;5123111;27;20415;-65
2024/01/01 09:00:16;;;;;;;3.38;1.73;;;;;;;;;;5127337;27;20087;-64
2024/01/01 09:02:42;;;;;;;4.30;1.33;;;;;;;;;;5127485;27;20039;-64
2024/01/01 09:05:09;;;;;;;6.38;1.70;;;;;;;;;;5128228;27;20039;-65
2024/01/01 09:07:35;;;;;;;4.72;1.55;;;;;;;;;;5125901;27;20035;-65
2024/01/01 09:10:02;;;;;;;3.30;1.42;;;;;;;;;;5128493;27;20459;-65
2024/01/01 09:12:28;;;;;;;3.50;1.83;;;;;;;;;;5125717;27;20068;-64
2024/01/01 09:14:55;;;;;;;3.60;1.63;;;;;;;;;;5127699;27;20047;-65
2024/01/01 09:17:21;;;;;;;5.80;1.75;;;;;;;;;;5126656;27;20047;-65
2024/01/01 09:19:48;;;;;;;6.82;1.40;;;;;;;;;;5127779;27;20050;-65
2024/01/01 09:22:14;;;;;;;7.60;2.30;;;;;;;;;;5125780;27;20061;-65
2024/01/01 09:24:42;;;;;;;3.28;1.83;;;;;;;;;;5127048;27;20055;-65
2024/01/01 09:27:08;;;;;;;4.85;1.75;;;;;;;;;;5126806;27;20410;-63
2024/01/01 09:29:34;;;;;;;3.25;1.63;;;;;;;;;;5127312;27;20043;-64
2024/01/01 09:32:00;;;;;;;4.32;1.80;;;;;;;;;;5126617;27;20047;-66
2024/01/01 09:34:26;;;;;;;8.85;2.45;;;;;;;;;;5126991;27;20039;-65
2024/01/01 09:36:52;;;;;;;4.20;1.80;;;;;;;;;;5106815;27;20035;-65
2024/01/01 09:39:19;;;;;;;6.15;2.53;;;;;;;;;;5126650;27;20051;-67
2024/01/01 09:41:45;;;;;;;4.60;1.65;;;;;;;;;;5126371;27;20149;-65
2024/01/01 09:44:11;;;;;;;6.82;1.85;;;;;;;;;;5125942;27;20394;-65
2024/01/01 09:46:38;;;;;;;5.90;2.50;;;;;;;;;;5126716;27;20059;-65
2024/01/01 09:49:04;;;;;;;6.38;2.20;;;;;;;;;;5127065;27;20123;-65
2024/01/01 09:51:32;;;;;;;6.07;2.78;;;;;;;;;;5107197;27;20038;-64
2024/01/01 09:54:02;;;;;;;11.43;2.85;;;;;;;;;;5125452;27;20462;-64
2024/01/01 09:56:28;;;;;;;8.35;2.72;;;;;;;;;;5126384;27;20032;-65
2024/01/01 09:58:57;;;;;;;7.32;2.85;;;;;;;;;;5125981;27;20104;-65
2024/01/01 10:01:23;;;;;;;6.45;2.10;;;;;;;;;;5125708;27;20621;-65
2024/01/01 10:04:07;;;;;;;6.15;3.15;;;;;;;;;;5126632;27;20089;-65
2024/01/01 10:06:36;;;;;;;13.38;2.20;;;;;;;;;;5126399;27;20114;-64
2024/01/01 10:09:08;;;;;;;6.15;2.65;;;;;;;;;;5125358;27;20057;-66
2024/01/01 10:11:38;;;;;;;5.72;1.80;;;;;;;;;;5126523;27;20122;-65
2024/01/01 10:14:05;;;;;;;6.95;2.33;;;;;;;;;;5126378;27;20248;-65
2024/01/01 10:16:31;;;;;;;7.13;2.75;;;;;;;;;;5126846;27;20039;-65
2024/01/01 10:18:59;;;;;;;10.35;3.40;;;;;;;;;;5126482;27;20117;-64
2024/01/01 10:21:29;;;;;;;9.32;2.75;;;;;;;;;;5126957;27;20031;-64
2024/01/01 10:23:56;;;;;;;8.90;2.83;;;;;;;;;;5127407;27;20573;-65
2024/01/01 10:26:22;;;;;;;11.80;3.05;;;;;;;;;;5128612;27;20068;-64
2024/01/01 10:28:49;;;;;;;7.30;2.50;;;;;;;;;;5125431;27;20043;-64
2024/01/01 10:31:18;;;;;;;7.38;2.15;;;;;;;;;;5125632;27;20464;-65
2024/01/01 10:33:48;;;;;;;13.30;3.40;;;;;;;;;;5125684;27;20088;-65
2024/01/01 10:36:16;;;;;;;10.35;4.85;;;;;;;;;;5125763;27;21084;-64
2024/01/01 10:38:45;;;;;;;9.20;3.50;;;;;;;;;;5124556;27;20051;-65
2024/01/01 10:41:11;;;;;;;7.93;2.67;;;;;;;;;;5105247;28;20051;-64
2024/01/01 10:43:40;;;;;;;8.13;3.08;;;;;;;;;;5104961;28;20032;-65
2024/01/01 10:46:06;;;;;;;9.43;3.58;;;;;;;;;;5104802;28;20443;-65
2024/01/01 10:48:33;;;;;;;7.20;2.70;;;;;;;;;;5105684;28;20490;-64
2024/01/01 10:51:05;;;;;;;7.95;2.67;;;;;;;;;;5104609;28;20273;-65
2024/01/01 10:53:43;;;;;;;12.05;3.47;;;;;;;;;;5104624;28;20027;-64
2024/01/01 10:56:20;;;;;;;12.35;4.00;;;;;;;;;;5103437;28;20066;-65
2024/01/01 10:58:56;;;;;;;10.05;2.92;;;;;;;;;;5104632;28;20088;-64
2024/01/01 11:01:22;;;;;;;8.43;3.33;;;;;;;;;;5104125;28;20555;-65
2024/01/01 11:03:49;;;;;;;9.05;3.25;;;;;;;;;;5104696;28;20057;-64
2024/01/01 11:06:31;;;;;;;12.55;3.05;;;;;;;;;;5104796;28;20047;-65
2024/01/01 11:08:58;;;;;;;7.38;2.35;;;;;;;;;;5102695;28;20400;-65
2024/01/01 11:11:30;;;;;;;7.38;2.55;;;;;;;;;;5104419;28;20043;-65
2024/01/01 11:13:57;;;;;;;4.78;2.55;;;;;;;;;;5098842;28;20051;-64
2024/01/01 11:16:23;;;;;;;9.93;4.25;;;;;;;;;;5103144;28;20047;-65
2024/01/01 11:18:50;;;;;;;10.95;3.40;;;;;;;;;;5103594;27;20047;-64
2024/01/01 11:21:29;;;;;;;8.63;2.47;;;;;;;;;;5103896;28;20074;-65
2024/01/01 11:23:56;;;;;;;10.73;2.78;;;;;;;;;;5101047;28;20048;-65
2024/01/01 11:26:32;;;;;;;6.60;2.22;;;;;;;;;;5104253;28;20043;-64
2024/01/01 11:29:03;;;;;;;7.38;2.30;;;;;;;;;;5103332;28;20697;-65
2024/01/01 11:31:29;;;;;;;16.85;3.70;;;;;;;;;;5099954;28;20028;-65
2024/01/01 11:34:06;;;;;;;10.60;3.22;;;;;;;;;;5101386;28;20043;-65
2024/01/01 11:36:32;;;;;;;16.80;3.90;;;;;;;;;;5101718;28;20039;-64
2024/01/01 11:38:59;;;;;;;9.75;2.60;;;;;;;;;;5104283;27;20076;-64
2024/01/01 11:41:26;;;;;;;13.45;3.50;;;;;;;;;;5122932;27;20085;-64
2024/01/01 11:43:52;;;;;;;7.50;2.75;;;;;;;;;;5124324;27;20039;-64
2024/01/01 11:46:24;;;;;;;8.95;3.10;;;;;;;;;;5124973;27;20387;-64
2024/01/01 11:48:56;;;;;;;14.02;2.95;;;;;;;;;;5124310;27;20147;-65
2024/01/01 11:51:23;;;;;;;6.85;3.58;;;;;;;;;;5124291;27;20455;-66
2024/01/01 11:54:03;;;;;;;7.55;2.90;;;;;;;;;;5104637;27;20113;-64
2024/01/01 11:56:29;;;;;;;8.20;3.03;;;;;;;;;;5123472;27;20565;-64
2024/01/01 11:58:55;;;;;;;6.55;2.85;;;;;;;;;;5123150;27;20042;-65
2024/01/01 12:01:21;;;;;;;9.65;2.67;;;;;;;;;;5123228;27;20035;-65
2024/01/01 12:03:47;;;;;;;7.13;2.85;;;;;;;;;;5122739;27;20454;-65
2024/01/01 12:06:15;;;;;;;11.48;3.95;;;;;;;;;;5114030;27;20039;-64
2024/01/01 12:08:42;;;;;;;6.93;2.58;;;;;;;;;;5112722;27;20092;-63
2024/01/01 12:11:08;;;;;;;9.65;2.83;;;;;;;;;;5115835;27;20622;-65
2024/01/01 12:13:34;;;;;;;7.18;2.55;;;;;;;;;;5121192;27;20447;-66
2024/01/01 12:16:16;;;;;;;7.15;3.00;;;;;;;;;;5120538;27;20130;-65
2024/01/01 12:18:42;;;;;;;7.70;3.42;;;;;;;;;;5119556;27;20467;-64
2024/01/01 12:21:09;;;;;;;5.70;2.83;;;;;;;;;;5120346;27;20160;-64
2024/01/01 12:23:36;;;;;;;9.60;3.20;;;;;;;;;;5084467;27;20042;-65
2024/01/01 12:26:05;;;;;;;6.30;2.97;;;;;;;;;;5120272;27;20537;-66
2024/01/01 12:28:31;;;;;;;7.10;2.55;;;;;;;;;;5120421;27;20031;-64
2024/01/01 12:31:00;;;;;;;7.57;2.83;;;;;;;;;;5120602;27;20130;-65
2024/01/01 12:33:27;;;;;;;14.15;2.92;;;;;;;;;;5120952;27;20050;-65
2024/01/01 12:35:53;;;;;;;5.38;2.67;;;;;;;;;;5120232;27;20047;-65
2024/01/01 12:38:19;;;;;;;10.05;3.22;;;;;;;;;;5120676;27;20112;-65
2024/01/01 12:40:45;;;;;;;10.43;2.65;;;;;;;;;;5120623;28;20126;-65
2024/01/01 12:43:11;;;;;;;12.82;2.90;;;;;;;;;;5120112;28;20027;-65
2024/01/01 12:45:37;;;;;;;7.93;2.45;;;;;;;;;;5120762;27;20494;-64
2024/01/01 12:48:04;;;;;;;12.40;4.25;;;;;;;;;;5120358;28;20683;-65
2024/01/01 12:50:30;;;;;;;6.97;2.80;;;;;;;;;;5121245;28;20122;-65
2024/01/01 12:52:57;;;;;;;13.55;3.20;;;;;;;;;;5119322;27;20054;-65
2024/01/01 12:55:23;;;;;;;7.70;2.30;;;;;;;;;;5119161;28;20070;-64
2024/01/01 12:57:49;;;;;;;12.05;3.42;;;;;;;;;;5118941;27;20416;-65
2024/01/01 13:00:17;;;;;;;9.40;3.15;;;;;;;;;;5121426;27;20413;-65
2024/01/01 13:02:43;;;;;;;9.00;3.20;;;;;;;;;;5120449;27;20557;-65
2024/01/01 13:05:09;;;;;;;11.35;3.15;;;;;;;;;;5101218;28;20514;-65
2024/01/01 13:07:36;;;;;;;7.82;3.45;;;;;;;;;;5120118;28;20047;-66
2024/01/01 13:10:02;;;;;;;12.95;4.47;;;;;;;;;;5120365;28;20117;-65
2024/01/01 13:12:29;;;;;;;7.43;3.15;;;;;;;;;;5120842;28;20395;-65
2024/01/01 13:14:55;;;;;;;7.22;3.03;;;;;;;;;;5102008;28;20095;-65
2024/01/01 13:17:21;;;;;;;10.35;3.45;;;;;;;;;;5120399;28;20494;-65
2024/01/01 13:19:47;;;;;;;7.82;3.00;;;;;;;;;;5121910;27;20051;-65
2024/01/01 13:22:16;;;;;;;5.95;2.45;;;;;;;;;;5097832;28;20447;-65
2024/01/01 13:24:42;;;;;;;5.30;2.30;;;;;;;;;;5120357;27;20046;-66
2024/01/01 13:27:17;;;;;;;10.25;3.42;;;;;;;;;;5120348;27;20047;-65
2024/01/01 13:29:43;;;;;;;4.68;2.10;;;;;;;;;;5121263;27;20043;-66
2024/01/01 13:32:09;;;;;;;10.18;3.25;;;;;;;;;;5098722;28;20047;-65
2024/01/01 13:34:35;;;;;;;9.65;2.75;;;;;;;;;;5098880;28;20053;-65
2024/01/01 13:37:02;;;;;;;6.20;2.42;;;;;;;;;;5118949;27;20049;-64
2024/01/01 13:39:28;;;;;;;5.72;2.60;;;;;;;;;;5121256;28;20055;-64
2024/01/01 13:41:54;;;;;;;11.30;2.75;;;;;;;;;;5120217;28;20051;-66
2024/01/01 13:44:20;;;;;;;5.60;3.13;;;;;;;;;;5122017;27;20067;-66
2024/01/01 13:46:46;;;;;;;5.07;2.28;;;;;;;;;;5123214;27;20053;-66
2024/01/01 13:49:12;;;;;;;7.05;2.70;;;;;;;;;;5123356;27;20039;-65
2024/01/01 13:51:38;;;;;;;8.88;2.70;;;;;;;;;;5122122;27;20043;-64
2024/01/01 13:54:04;;;;;;;5.70;2.45;;;;;;;;;;5123072;27;20077;-65
2024/01/01 13:56:31;;;;;;;9.55;2.35;;;;;;;;;;5122723;27;20035;-65
2024/01/01 13:58:57;;;;;;;8.07;3.08;;;;;;;;;;5124192;27;20518;-65
2024/01/01 14:01:23;;;;;;;13.02;3.05;;;;;;;;;;5123674;27;20049;-66
2024/01/01 14:03:50;;;;;;;6.43;2.47;;;;;;;;;;5123116;27;20514;-65
2024/01/01 14:06:16;;;;;;;10.95;2.50;;;;;;;;;;5122846;27;20154;-66
2024/01/01 14:08:42;;;;;;;7.55;2.92;;;;;;;;;;5122455;27;20043;-66
2024/01/01 14:11:08;;;;;;;11.02;2.50;;;;;;;;;;5123321;27;20096;-65
2024/01/01 14:13:34;;;;;;;18.00;3.50;;;;;;;;;;5124259;27;20054;-65
2024/01/01 14:16:01;;;;;;;8.45;2.17;;;;;;;;;;5123153;27;20107;-64
2024/01/01 14:18:27;;;;;;;11.10;2.42;;;;;;;;;;5122212;27;20050;-65
2024/01/01 14:20:53;;;;;;;9.10;3.13;;;;;;;;;;5121995;27;20093;-64
2024/01/01 14:23:19;;;;;;;9.45;2.90;;;;;;;;;;5122541;27;20425;-65
2024/01/01 14:25:47;;;;;;;10.60;3.25;;;;;;;;;;5103665;27;20046;-65
2024/01/01 14:28:13;;;;;;;12.40;4.55;;;;;;;;;;5121091;27;20133;-65
2024/01/01 14:30:39;;;;;;;7.07;2.30;;;;;;;;;;5119325;27;20530;-65
2024/01/01 14:33:05;;;;;;;7.72;2.60;;;;;;;;;;5117992;27;20085;-65